sensor_id;sensor_type;location;lat;lon;timestamp;pressure;altitude;pressure_sealevel;temperature;humidity
62524;BME280;53689;56.878;60.672;2022-12-07T00:01:07;100108.34;;;22.55;20.59
62524;BME280;53689;56.878;60.672;2022-12-07T00:03:35;100100.16;;;22.47;20.63
62524;BME280;53689;56.878;60.672;2022-12-07T00:06:04;100103.13;;;22.54;21.46
62524;BME280;53689;56.878;60.672;2022-12-07T00:08:32;100103.28;;;22.52;20.38
62524;BME280;53689;56.878;60.672;2022-12-07T00:11:02;100100.34;;;22.45;21.60
62524;BME280;53689;56.878;60.672;2022-12-07T00:13:31;100100.91;;;22.49;21.18
62524;BME280;53689;56.878;60.672;2022-12-07T00:16:00;100105.34;;;22.58;21.89
62524;BME280;53689;56.878;60.672;2022-12-07T00:18:29;100107.34;;;22.56;20.91
62524;BME280;53689;56.878;60.672;2022-12-07T00:20:59;100109.00;;;22.49;20.68
62524;BME280;53689;56.878;60.672;2022-12-07T00:23:27;100106.13;;;22.51;19.99
62524;BME280;53689;56.878;60.672;2022-12-07T00:25:55;100114.75;;;22.54;21.59
62524;BME280;53689;56.878;60.672;2022-12-07T00:28:24;100103.47;;;22.59;21.73
62524;BME280;53689;56.878;60.672;2022-12-07T00:30:51;100101.03;;;22.48;20.86
62524;BME280;53689;56.878;60.672;2022-12-07T00:33:19;100100.34;;;22.45;21.75
62524;BME280;53689;56.878;60.672;2022-12-07T00:35:47;100100.56;;;22.52;21.70
62524;BME280;53689;56.878;60.672;2022-12-07T00:38:22;100102.25;;;22.53;20.16
62524;BME280;53689;56.878;60.672;2022-12-07T00:40:55;100094.75;;;22.47;21.74
62524;BME280;53689;56.878;60.672;2022-12-07T00:43:25;100095.41;;;22.41;20.05
62524;BME280;53689;56.878;60.672;2022-12-07T00:45:52;100087.47;;;22.57;21.76
62524;BME280;53689;56.878;60.672;2022-12-07T00:48:20;100083.50;;;22.52;21.15
62524;BME280;53689;56.878;60.672;2022-12-07T00:50:47;100088.09;;;22.51;21.56
62524;BME280;53689;56.878;60.672;2022-12-07T00:53:15;100086.41;;;22.50;21.39
62524;BME280;53689;56.878;60.672;2022-12-07T00:55:43;100082.69;;;22.51;21.21
62524;BME280;53689;56.878;60.672;2022-12-07T00:58:11;100086.75;;;22.55;21.21
62524;BME280;53689;56.878;60.672;2022-12-07T01:00:41;100085.44;;;22.59;21.43
62524;BME280;53689;56.878;60.672;2022-12-07T01:03:12;100075.94;;;22.55;21.02
62524;BME280;53689;56.878;60.672;2022-12-07T01:05:40;100082.06;;;22.57;21.52
62524;BME280;53689;56.878;60.672;2022-12-07T01:08:08;100079.84;;;22.53;18.85
62524;BME280;53689;56.878;60.672;2022-12-07T01:10:36;100076.81;;;22.38;18.13
62524;BME280;53689;56.878;60.672;2022-12-07T01:13:04;100069.88;;;22.53;20.47
62524;BME280;53689;56.878;60.672;2022-12-07T01:15:31;100069.88;;;22.53;21.13
62524;BME280;53689;56.878;60.672;2022-12-07T01:18:00;100063.13;;;22.49;20.06
62524;BME280;53689;56.878;60.672;2022-12-07T01:20:28;100069.63;;;22.47;18.75
62524;BME280;53689;56.878;60.672;2022-12-07T01:22:55;100059.06;;;22.53;21.34
62524;BME280;53689;56.878;60.672;2022-12-07T01:25:23;100063.22;;;22.48;21.06
62524;BME280;53689;56.878;60.672;2022-12-07T01:27:51;100067.63;;;22.49;19.47
62524;BME280;53689;56.878;60.672;2022-12-07T01:30:18;100071.31;;;22.48;20.64
62524;BME280;53689;56.878;60.672;2022-12-07T01:32:46;100065.63;;;22.51;20.87
62524;BME280;53689;56.878;60.672;2022-12-07T01:35:15;100070.19;;;22.50;19.79
62524;BME280;53689;56.878;60.672;2022-12-07T01:37:42;100071.56;;;22.54;20.11
62524;BME280;53689;56.878;60.672;2022-12-07T01:40:11;100062.22;;;22.49;20.64
62524;BME280;53689;56.878;60.672;2022-12-07T01:42:38;100063.94;;;22.50;20.84
62524;BME280;53689;56.878;60.672;2022-12-07T01:45:40;100068.34;;;22.51;20.76
62524;BME280;53689;56.878;60.672;2022-12-07T01:48:09;100071.22;;;22.49;20.69
62524;BME280;53689;56.878;60.672;2022-12-07T01:50:40;100074.75;;;22.50;20.70
62524;BME280;53689;56.878;60.672;2022-12-07T01:53:09;100075.88;;;22.47;20.32
62524;BME280;53689;56.878;60.672;2022-12-07T01:55:40;100074.44;;;22.53;19.67
62524;BME280;53689;56.878;60.672;2022-12-07T01:58:10;100074.19;;;22.46;21.06
62524;BME280;53689;56.878;60.672;2022-12-07T02:00:39;100064.47;;;22.53;20.98
62524;BME280;53689;56.878;60.672;2022-12-07T02:03:10;100074.75;;;22.50;18.98
62524;BME280;53689;56.878;60.672;2022-12-07T02:05:41;100073.91;;;22.49;20.00
62524;BME280;53689;56.878;60.672;2022-12-07T02:08:10;100075.59;;;22.50;19.75
62524;BME280;53689;56.878;60.672;2022-12-07T02:10:39;100081.13;;;22.49;20.64
62524;BME280;53689;56.878;60.672;2022-12-07T02:13:11;100077.59;;;22.48;19.73
62524;BME280;53689;56.878;60.672;2022-12-07T02:18:44;100074.25;;;22.54;18.96
62524;BME280;53689;56.878;60.672;2022-12-07T02:21:24;100071.22;;;22.49;20.06
62524;BME280;53689;56.878;60.672;2022-12-07T02:24:13;100060.63;;;22.38;16.52
62524;BME280;53689;56.878;60.672;2022-12-07T02:26:55;100072.91;;;22.50;19.53
62524;BME280;53689;56.878;60.672;2022-12-07T02:29:33;100066.56;;;22.41;17.52
62524;BME280;53689;56.878;60.672;2022-12-07T02:32:07;100065.00;;;22.57;20.18
62524;BME280;53689;56.878;60.672;2022-12-07T02:34:42;100068.19;;;22.52;21.39
62524;BME280;53689;56.878;60.672;2022-12-07T02:37:19;100068.34;;;22.51;20.83
62524;BME280;53689;56.878;60.672;2022-12-07T02:39:53;100068.19;;;22.52;20.90
62524;BME280;53689;56.878;60.672;2022-12-07T02:42:26;100066.16;;;22.54;20.68
62524;BME280;53689;56.878;60.672;2022-12-07T02:44:59;100073.03;;;22.49;19.00
62524;BME280;53689;56.878;60.672;2022-12-07T02:47:28;100064.88;;;22.40;19.73
62524;BME280;53689;56.878;60.672;2022-12-07T02:49:56;100073.59;;;22.52;20.96
62524;BME280;53689;56.878;60.672;2022-12-07T02:52:24;100060.69;;;22.46;17.95
62524;BME280;53689;56.878;60.672;2022-12-07T02:54:52;100054.00;;;22.50;19.33
62524;BME280;53689;56.878;60.672;2022-12-07T02:57:33;100057.38;;;22.52;21.22
62524;BME280;53689;56.878;60.672;2022-12-07T03:00:07;100060.22;;;22.51;20.06
62524;BME280;53689;56.878;60.672;2022-12-07T03:02:41;100052.34;;;22.04;17.44
62524;BME280;53689;56.878;60.672;2022-12-07T03:05:27;100057.13;;;21.93;17.41
62524;BME280;53689;56.878;60.672;2022-12-07T03:08:02;100057.19;;;22.27;18.87
62524;BME280;53689;56.878;60.672;2022-12-07T03:10:38;100054.72;;;22.34;20.15
62524;BME280;53689;56.878;60.672;2022-12-07T03:13:11;100061.91;;;22.25;21.58
62524;BME280;53689;56.878;60.672;2022-12-07T03:15:45;100060.81;;;22.36;20.75
62524;BME280;53689;56.878;60.672;2022-12-07T03:18:17;100066.41;;;22.43;20.79
62524;BME280;53689;56.878;60.672;2022-12-07T03:20:48;100056.63;;;22.42;19.22
62524;BME280;53689;56.878;60.672;2022-12-07T03:23:18;100057.16;;;22.45;20.74
62524;BME280;53689;56.878;60.672;2022-12-07T03:25:48;100047.75;;;22.50;21.12
62524;BME280;53689;56.878;60.672;2022-12-07T03:28:29;100053.69;;;22.53;21.05
62524;BME280;53689;56.878;60.672;2022-12-07T03:31:02;100054.72;;;22.61;20.38
62524;BME280;53689;56.878;60.672;2022-12-07T03:33:39;100060.97;;;22.35;18.57
62524;BME280;53689;56.878;60.672;2022-12-07T03:36:13;100059.19;;;22.43;21.99
62524;BME280;53689;56.878;60.672;2022-12-07T03:38:45;100060.94;;;22.53;20.57
62524;BME280;53689;56.878;60.672;2022-12-07T03:43:45;100055.06;;;21.04;18.84
62524;BME280;53689;56.878;60.672;2022-12-07T03:46:20;100057.75;;;21.50;17.18
62524;BME280;53689;56.878;60.672;2022-12-07T03:48:57;100055.53;;;21.45;16.38
62524;BME280;53689;56.878;60.672;2022-12-07T03:51:31;100054.97;;;21.60;17.84
62524;BME280;53689;56.878;60.672;2022-12-07T03:54:09;100048.53;;;21.71;16.74
62524;BME280;53689;56.878;60.672;2022-12-07T03:56:38;100053.53;;;21.84;16.97
62524;BME280;53689;56.878;60.672;2022-12-07T03:59:07;100060.88;;;21.73;16.01
62524;BME280;53689;56.878;60.672;2022-12-07T04:01:36;100056.00;;;21.77;19.32
62524;BME280;53689;56.878;60.672;2022-12-07T04:04:04;100060.94;;;21.82;18.24
62524;BME280;53689;56.878;60.672;2022-12-07T04:06:31;100054.25;;;21.68;18.70
62524;BME280;53689;56.878;60.672;2022-12-07T04:08:59;100054.53;;;21.83;18.41
62524;BME280;53689;56.878;60.672;2022-12-07T04:11:27;100056.31;;;21.92;16.86
62524;BME280;53689;56.878;60.672;2022-12-07T04:13:54;100062.50;;;22.11;19.69
62524;BME280;53689;56.878;60.672;2022-12-07T04:16:22;100060.31;;;22.14;19.83
62524;BME280;53689;56.878;60.672;2022-12-07T04:18:51;100052.34;;;22.04;17.89
62524;BME280;53689;56.878;60.672;2022-12-07T04:21:18;100055.56;;;22.08;20.84
62524;BME280;53689;56.878;60.672;2022-12-07T04:23:46;100059.81;;;22.11;19.13
62524;BME280;53689;56.878;60.672;2022-12-07T04:26:13;100059.16;;;22.17;19.53
62524;BME280;53689;56.878;60.672;2022-12-07T04:28:41;100065.28;;;22.27;21.07
62524;BME280;53689;56.878;60.672;2022-12-07T04:31:09;100053.81;;;22.25;19.88
62524;BME280;53689;56.878;60.672;2022-12-07T04:33:36;100063.00;;;22.14;19.29
62524;BME280;53689;56.878;60.672;2022-12-07T04:36:06;100066.91;;;22.12;19.45
62524;BME280;53689;56.878;60.672;2022-12-07T04:38:33;100066.78;;;22.22;18.25
62524;BME280;53689;56.878;60.672;2022-12-07T04:41:04;100063.53;;;22.18;18.07
62524;BME280;53689;56.878;60.672;2022-12-07T04:43:32;100071.69;;;22.26;19.20
62524;BME280;53689;56.878;60.672;2022-12-07T04:46:00;100074.66;;;22.15;17.11
62524;BME280;53689;56.878;60.672;2022-12-07T04:48:28;100068.38;;;22.33;18.63
62524;BME280;53689;56.878;60.672;2022-12-07T04:50:56;100074.50;;;22.16;19.53
62524;BME280;53689;56.878;60.672;2022-12-07T04:53:25;100073.78;;;22.33;17.02
62524;BME280;53689;56.878;60.672;2022-12-07T04:55:52;100070.59;;;22.37;18.27
62524;BME280;53689;56.878;60.672;2022-12-07T04:58:20;100078.00;;;22.35;18.10
62524;BME280;53689;56.878;60.672;2022-12-07T05:00:48;100069.13;;;22.43;17.75
62524;BME280;53689;56.878;60.672;2022-12-07T05:03:15;100070.28;;;22.14;18.73
62524;BME280;53689;56.878;60.672;2022-12-07T05:05:43;100071.97;;;22.41;17.32
62524;BME280;53689;56.878;60.672;2022-12-07T05:08:11;100078.13;;;22.52;19.11
62524;BME280;53689;56.878;60.672;2022-12-07T05:10:40;100068.78;;;22.46;17.96
62524;BME280;53689;56.878;60.672;2022-12-07T05:13:08;100077.97;;;22.53;18.63
62524;BME280;53689;56.878;60.672;2022-12-07T05:15:35;100068.09;;;21.73;18.44
62524;BME280;53689;56.878;60.672;2022-12-07T05:18:03;100070.13;;;22.42;18.45
62524;BME280;53689;56.878;60.672;2022-12-07T05:20:30;100065.28;;;22.27;17.99
62524;BME280;53689;56.878;60.672;2022-12-07T05:23:01;100074.03;;;22.21;16.63
62524;BME280;53689;56.878;60.672;2022-12-07T05:25:29;100075.00;;;22.38;18.61
62524;BME280;53689;56.878;60.672;2022-12-07T05:27:58;100071.75;;;22.35;16.84
62524;BME280;53689;56.878;60.672;2022-12-07T05:30:26;100072.66;;;22.43;16.51
62524;BME280;53689;56.878;60.672;2022-12-07T05:32:53;100077.16;;;22.53;17.15
62524;BME280;53689;56.878;60.672;2022-12-07T05:35:21;100073.50;;;22.44;17.20
62524;BME280;53689;56.878;60.672;2022-12-07T05:37:49;100064.72;;;22.42;16.74
62524;BME280;53689;56.878;60.672;2022-12-07T05:40:17;100060.09;;;22.52;17.40
62524;BME280;53689;56.878;60.672;2022-12-07T05:42:45;100063.13;;;22.49;16.99
62524;BME280;53689;56.878;60.672;2022-12-07T05:45:14;100067.28;;;22.43;16.72
62524;BME280;53689;56.878;60.672;2022-12-07T05:47:41;100060.69;;;22.46;16.95
62524;BME280;53689;56.878;60.672;2022-12-07T05:50:09;100063.13;;;22.49;17.15
62524;BME280;53689;56.878;60.672;2022-12-07T05:52:37;100061.44;;;22.56;16.90
62524;BME280;53689;56.878;60.672;2022-12-07T05:55:05;100062.78;;;22.52;17.22
62524;BME280;53689;56.878;60.672;2022-12-07T05:57:33;100056.00;;;22.48;16.96
62524;BME280;53689;56.878;60.672;2022-12-07T06:00:02;100058.84;;;22.47;16.59
62524;BME280;53689;56.878;60.672;2022-12-07T06:02:39;100057.72;;;22.49;16.58
62524;BME280;53689;56.878;60.672;2022-12-07T06:05:07;100050.31;;;22.51;16.74
62524;BME280;53689;56.878;60.672;2022-12-07T06:07:35;100057.06;;;22.55;17.82
62524;BME280;53689;56.878;60.672;2022-12-07T06:10:03;100055.22;;;22.56;16.12
62524;BME280;53689;56.878;60.672;2022-12-07T06:12:31;100053.44;;;22.47;16.58
62524;BME280;53689;56.878;60.672;2022-12-07T06:14:58;100051.84;;;22.54;16.17
62524;BME280;53689;56.878;60.672;2022-12-07T06:17:26;100053.69;;;22.53;16.98
62524;BME280;53689;56.878;60.672;2022-12-07T06:19:55;100045.09;;;22.58;16.95
62524;BME280;53689;56.878;60.672;2022-12-07T06:22:24;100044.09;;;22.59;16.92
62524;BME280;53689;56.878;60.672;2022-12-07T06:24:51;100040.63;;;22.49;17.74
62524;BME280;53689;56.878;60.672;2022-12-07T06:27:19;100040.50;;;22.50;16.81
62524;BME280;53689;56.878;60.672;2022-12-07T06:29:47;100035.38;;;22.47;16.97
62524;BME280;53689;56.878;60.672;2022-12-07T06:32:15;100030.41;;;22.52;17.08
62524;BME280;53689;56.878;60.672;2022-12-07T06:34:42;100031.31;;;22.43;16.99
62524;BME280;53689;56.878;60.672;2022-12-07T06:37:12;100031.31;;;22.43;17.27
62524;BME280;53689;56.878;60.672;2022-12-07T06:39:40;100030.72;;;22.49;16.62
62524;BME280;53689;56.878;60.672;2022-12-07T06:42:07;100028.38;;;22.54;16.45
62524;BME280;53689;56.878;60.672;2022-12-07T06:44:35;100033.78;;;22.54;16.63
62524;BME280;53689;56.878;60.672;2022-12-07T06:47:03;100020.47;;;22.61;16.95
62524;BME280;53689;56.878;60.672;2022-12-07T06:49:50;100026.06;;;22.59;17.13
62524;BME280;53689;56.878;60.672;2022-12-07T06:52:19;100025.88;;;22.61;17.40
62524;BME280;53689;56.878;60.672;2022-12-07T06:54:47;100028.06;;;22.57;16.66
62524;BME280;53689;56.878;60.672;2022-12-07T06:57:15;100030.47;;;22.69;17.37
62524;BME280;53689;56.878;60.672;2022-12-07T06:59:42;100023.03;;;22.63;16.84
62524;BME280;53689;56.878;60.672;2022-12-07T07:02:10;100025.19;;;22.59;16.69
62524;BME280;53689;56.878;60.672;2022-12-07T07:04:38;100018.78;;;22.60;16.53
62524;BME280;53689;56.878;60.672;2022-12-07T07:07:06;100020.66;;;22.59;16.83
62524;BME280;53689;56.878;60.672;2022-12-07T07:09:35;100011.53;;;22.61;17.15
62524;BME280;53689;56.878;60.672;2022-12-07T07:12:03;100010.00;;;22.58;16.88
62524;BME280;53689;56.878;60.672;2022-12-07T07:14:31;100009.84;;;22.59;17.40
62524;BME280;53689;56.878;60.672;2022-12-07T07:16:58;100014.56;;;22.57;16.67
62524;BME280;53689;56.878;60.672;2022-12-07T07:19:26;100001.56;;;22.61;16.85
62524;BME280;53689;56.878;60.672;2022-12-07T07:21:54;100004.78;;;22.65;17.22
62524;BME280;53689;56.878;60.672;2022-12-07T07:24:21;100007.34;;;22.66;17.69
62524;BME280;53689;56.878;60.672;2022-12-07T07:26:50;100002.44;;;22.62;16.96
62524;BME280;53689;56.878;60.672;2022-12-07T07:29:18;99992.81;;;22.59;16.92
62524;BME280;53689;56.878;60.672;2022-12-07T07:31:45;100000.06;;;22.58;16.85
62524;BME280;53689;56.878;60.672;2022-12-07T07:34:13;99994.88;;;22.39;17.57
62524;BME280;53689;56.878;60.672;2022-12-07T07:36:40;99990.78;;;22.53;16.78
62524;BME280;53689;56.878;60.672;2022-12-07T07:39:09;99991.97;;;22.58;17.20
62524;BME280;53689;56.878;60.672;2022-12-07T07:41:37;99991.09;;;22.58;16.80
62524;BME280;53689;56.878;60.672;2022-12-07T07:44:13;99989.94;;;22.61;16.41
62524;BME280;53689;56.878;60.672;2022-12-07T07:46:40;99991.63;;;22.62;17.43
62524;BME280;53689;56.878;60.672;2022-12-07T07:49:09;99985.19;;;22.54;16.90
62524;BME280;53689;56.878;60.672;2022-12-07T07:51:37;99982.53;;;22.63;16.92
62524;BME280;53689;56.878;60.672;2022-12-07T07:54:05;99981.50;;;22.64;17.10
62524;BME280;53689;56.878;60.672;2022-12-07T07:56:33;99986.22;;;22.62;16.52
62524;BME280;53689;56.878;60.672;2022-12-07T07:59:00;99988.25;;;22.59;16.83
62524;BME280;53689;56.878;60.672;2022-12-07T08:01:30;99978.81;;;22.64;19.49
62524;BME280;53689;56.878;60.672;2022-12-07T08:03:58;99983.38;;;22.63;20.35
62524;BME280;53689;56.878;60.672;2022-12-07T08:06:26;99972.25;;;22.66;18.43
62524;BME280;53689;56.878;60.672;2022-12-07T08:08:58;99975.25;;;22.55;17.68
62524;BME280;53689;56.878;60.672;2022-12-07T08:11:26;99976.03;;;22.82;17.91
62524;BME280;53689;56.878;60.672;2022-12-07T08:13:54;99969.41;;;22.84;18.67
62524;BME280;53689;56.878;60.672;2022-12-07T08:16:21;99969.00;;;22.54;18.80
62524;BME280;53689;56.878;60.672;2022-12-07T08:18:50;99974.13;;;22.74;18.25
62524;BME280;53689;56.878;60.672;2022-12-07T08:21:19;99968.91;;;22.81;18.45
62524;BME280;53689;56.878;60.672;2022-12-07T08:23:48;99971.09;;;22.85;18.77
62524;BME280;53689;56.878;60.672;2022-12-07T08:26:16;99968.34;;;22.61;18.15
62524;BME280;53689;56.878;60.672;2022-12-07T08:28:45;99962.63;;;22.64;17.32
62524;BME280;53689;56.878;60.672;2022-12-07T08:31:15;99970.88;;;22.62;17.51
62524;BME280;53689;56.878;60.672;2022-12-07T08:33:44;99969.38;;;22.59;17.74
62524;BME280;53689;56.878;60.672;2022-12-07T08:36:15;99968.34;;;22.61;18.30
62524;BME280;53689;56.878;60.672;2022-12-07T08:38:42;99967.19;;;22.63;17.99
62524;BME280;53689;56.878;60.672;2022-12-07T08:41:31;99960.25;;;22.61;18.02
62524;BME280;53689;56.878;60.672;2022-12-07T08:43:58;99961.28;;;22.59;17.22
62524;BME280;53689;56.878;60.672;2022-12-07T08:46:29;99963.78;;;22.61;18.44
62524;BME280;53689;56.878;60.672;2022-12-07T08:49:02;99959.06;;;22.55;17.62
62524;BME280;53689;56.878;60.672;2022-12-07T08:51:32;99954.50;;;22.55;17.74
62524;BME280;53689;56.878;60.672;2022-12-07T08:54:01;99957.03;;;22.57;17.73
62524;BME280;53689;56.878;60.672;2022-12-07T08:56:31;99957.91;;;22.74;19.15
62524;BME280;53689;56.878;60.672;2022-12-07T08:58:59;99959.91;;;22.64;17.40
62524;BME280;53689;56.878;60.672;2022-12-07T09:01:28;99952.16;;;22.61;18.09
62524;BME280;53689;56.878;60.672;2022-12-07T09:03:55;99949.03;;;22.47;18.20
62524;BME280;53689;56.878;60.672;2022-12-07T09:06:23;99951.00;;;22.37;18.07
62524;BME280;53689;56.878;60.672;2022-12-07T09:08:54;99952.19;;;22.34;18.02
62524;BME280;53689;56.878;60.672;2022-12-07T09:11:25;99945.72;;;22.53;18.12
62524;BME280;53689;56.878;60.672;2022-12-07T09:13:55;99943.88;;;22.62;17.27
62524;BME280;53689;56.878;60.672;2022-12-07T09:16:23;99952.16;;;22.61;18.04
62524;BME280;53689;56.878;60.672;2022-12-07T09:18:51;99949.59;;;22.59;17.33
62524;BME280;53689;56.878;60.672;2022-12-07T09:21:18;99938.84;;;22.67;16.90
62524;BME280;53689;56.878;60.672;2022-12-07T09:23:46;99940.00;;;22.65;16.74
62524;BME280;53689;56.878;60.672;2022-12-07T09:26:15;99940.03;;;22.73;18.35
62524;BME280;53689;56.878;60.672;2022-12-07T09:28:43;99938.38;;;22.80;17.51
62524;BME280;53689;56.878;60.672;2022-12-07T09:31:11;99943.59;;;22.73;16.89
62524;BME280;53689;56.878;60.672;2022-12-07T09:33:55;99946.59;;;22.70;16.83
62524;BME280;53689;56.878;60.672;2022-12-07T09:36:23;99945.09;;;22.68;17.56
62524;BME280;53689;56.878;60.672;2022-12-07T09:38:50;99940.38;;;22.70;17.26
62524;BME280;53689;56.878;60.672;2022-12-07T09:41:20;99942.88;;;22.71;17.08
62524;BME280;53689;56.878;60.672;2022-12-07T09:43:49;99936.81;;;22.69;17.27
62524;BME280;53689;56.878;60.672;2022-12-07T09:46:18;99935.50;;;22.73;17.11
62524;BME280;53689;56.878;60.672;2022-12-07T09:48:47;99940.38;;;22.70;17.07
62524;BME280;53689;56.878;60.672;2022-12-07T09:51:18;99938.50;;;22.70;17.12
62524;BME280;53689;56.878;60.672;2022-12-07T09:53:52;99931.94;;;22.73;16.50
62524;BME280;53689;56.878;60.672;2022-12-07T09:56:23;99933.63;;;22.74;17.13
62524;BME280;53689;56.878;60.672;2022-12-07T09:58:55;99938.22;;;22.82;17.19
62524;BME280;53689;56.878;60.672;2022-12-07T10:01:27;99936.38;;;22.91;16.98
62524;BME280;53689;56.878;60.672;2022-12-07T10:04:01;99928.41;;;22.81;16.78
62524;BME280;53689;56.878;60.672;2022-12-07T10:06:44;99922.31;;;22.79;17.80
62524;BME280;53689;56.878;60.672;2022-12-07T10:09:12;99924.34;;;22.77;17.08
62524;BME280;53689;56.878;60.672;2022-12-07T10:12:02;99916.41;;;22.75;17.17
62524;BME280;53689;56.878;60.672;2022-12-07T10:14:32;99918.28;;;22.75;17.11
62524;BME280;53689;56.878;60.672;2022-12-07T10:17:35;99917.78;;;22.79;18.60
62524;BME280;53689;56.878;60.672;2022-12-07T10:20:15;99914.59;;;22.84;17.62
62524;BME280;53689;56.878;60.672;2022-12-07T10:22:56;99915.88;;;22.71;18.28
62524;BME280;53689;56.878;60.672;2022-12-07T10:25:27;99914.41;;;22.77;18.17
62524;BME280;53689;56.878;60.672;2022-12-07T10:28:11;99909.16;;;22.67;17.20
62524;BME280;53689;56.878;60.672;2022-12-07T10:30:55;99913.19;;;22.71;16.99
62524;BME280;53689;56.878;60.672;2022-12-07T10:33:29;99913.66;;;22.50;17.56
62524;BME280;53689;56.878;60.672;2022-12-07T10:35:57;99908.81;;;22.70;18.35
62524;BME280;53689;56.878;60.672;2022-12-07T10:38:26;99913.38;;;22.70;17.26
62524;BME280;53689;56.878;60.672;2022-12-07T10:41:03;99910.19;;;22.75;17.59
62524;BME280;53689;56.878;60.672;2022-12-07T10:43:33;99907.81;;;22.80;17.19
62524;BME280;53689;56.878;60.672;2022-12-07T10:49:13;99904.63;;;22.84;17.27
62524;BME280;53689;56.878;60.672;2022-12-07T10:51:47;99909.69;;;22.88;17.09
62524;BME280;53689;56.878;60.672;2022-12-07T10:54:25;99901.91;;;22.84;17.42
62524;BME280;53689;56.878;60.672;2022-12-07T10:57:24;99900.22;;;22.75;18.82
62524;BME280;53689;56.878;60.672;2022-12-07T11:00:08;99902.09;;;22.83;17.40
62524;BME280;53689;56.878;60.672;2022-12-07T11:02:59;99893.81;;;22.84;18.44
62524;BME280;53689;56.878;60.672;2022-12-07T11:05:37;99895.50;;;22.85;17.36
62524;BME280;53689;56.878;60.672;2022-12-07T11:08:14;99893.78;;;22.76;18.71
62524;BME280;53689;56.878;60.672;2022-12-07T11:10:48;99895.66;;;22.76;18.14
62524;BME280;53689;56.878;60.672;2022-12-07T11:13:27;99899.19;;;22.76;18.14
62524;BME280;53689;56.878;60.672;2022-12-07T11:16:16;99902.94;;;22.92;18.16
62524;BME280;53689;56.878;60.672;2022-12-07T11:18:55;99896.22;;;22.96;17.99
62524;BME280;53689;56.878;60.672;2022-12-07T11:21:29;99900.25;;;23.00;18.87
62524;BME280;53689;56.878;60.672;2022-12-07T11:24:05;99902.78;;;23.02;18.27
62524;BME280;53689;56.878;60.672;2022-12-07T11:26:52;99900.25;;;22.92;17.96
62524;BME280;53689;56.878;60.672;2022-12-07T11:32:19;99897.88;;;22.80;18.21
62524;BME280;53689;56.878;60.672;2022-12-07T11:34:56;99892.78;;;22.85;18.30
62524;BME280;53689;56.878;60.672;2022-12-07T11:37:31;99895.19;;;22.89;17.74
62524;BME280;53689;56.878;60.672;2022-12-07T11:40:16;99897.69;;;22.90;17.92
62524;BME280;53689;56.878;60.672;2022-12-07T11:42:50;99896.19;;;22.79;18.34
62524;BME280;53689;56.878;60.672;2022-12-07T11:45:23;99891.97;;;22.85;18.14
62524;BME280;53689;56.878;60.672;2022-12-07T11:47:59;99895.50;;;22.85;19.83
62524;BME280;53689;56.878;60.672;2022-12-07T11:50:36;99890.44;;;22.82;18.82
62524;BME280;53689;56.878;60.672;2022-12-07T11:53:10;99892.28;;;22.90;18.21
62524;BME280;53689;56.878;60.672;2022-12-07T11:55:45;99894.19;;;22.98;18.18
62524;BME280;53689;56.878;60.672;2022-12-07T11:58:23;99893.50;;;22.96;18.29
62524;BME280;53689;56.878;60.672;2022-12-07T12:01:11;99890.59;;;22.89;17.62
62524;BME280;53689;56.878;60.672;2022-12-07T12:03:45;99891.31;;;22.91;17.89
62524;BME280;53689;56.878;60.672;2022-12-07T12:06:20;99890.06;;;22.61;17.77
62524;BME280;53689;56.878;60.672;2022-12-07T12:08:53;99891.28;;;22.83;18.75
62524;BME280;53689;56.878;60.672;2022-12-07T12:12:12;99894.00;;;22.83;18.55
62524;BME280;53689;56.878;60.672;2022-12-07T12:15:18;99895.50;;;22.85;19.47
62524;BME280;53689;56.878;60.672;2022-12-07T12:18:00;99898.84;;;21.40;18.33
62524;BME280;53689;56.878;60.672;2022-12-07T12:20:38;99885.25;;;22.46;18.19
62524;BME280;53689;56.878;60.672;2022-12-07T12:23:12;99884.66;;;22.52;17.42
62524;BME280;53689;56.878;60.672;2022-12-07T12:25:43;99879.59;;;22.66;17.54
62524;BME280;53689;56.878;60.672;2022-12-07T12:28:22;99876.94;;;22.74;18.04
62524;BME280;53689;56.878;60.672;2022-12-07T12:31:09;99875.41;;;22.80;17.85
62524;BME280;53689;56.878;60.672;2022-12-07T12:33:43;99873.91;;;22.77;18.14
62524;BME280;53689;56.878;60.672;2022-12-07T12:36:25;99875.94;;;22.83;18.14
62524;BME280;53689;56.878;60.672;2022-12-07T12:39:11;99871.53;;;22.74;18.08
62524;BME280;53689;56.878;60.672;2022-12-07T12:41:59;99872.19;;;22.76;17.92
62524;BME280;53689;56.878;60.672;2022-12-07T12:44:41;99868.31;;;22.79;18.02
62524;BME280;53689;56.878;60.672;2022-12-07T12:50:31;99873.91;;;22.77;17.88
62524;BME280;53689;56.878;60.672;2022-12-07T12:53:12;99858.69;;;22.76;17.23
62524;BME280;53689;56.878;60.672;2022-12-07T12:56:19;99867.00;;;22.83;18.10
62524;BME280;53689;56.878;60.672;2022-12-07T12:59:22;99866.13;;;22.74;18.12
62524;BME280;53689;56.878;60.672;2022-12-07T13:01:51;99869.00;;;22.81;18.00
62524;BME280;53689;56.878;60.672;2022-12-07T13:04:49;99863.94;;;22.86;18.42
62524;BME280;53689;56.878;60.672;2022-12-07T13:07:51;99866.81;;;22.84;18.63
62524;BME280;53689;56.878;60.672;2022-12-07T13:10:33;99870.34;;;22.77;17.54
62524;BME280;53689;56.878;60.672;2022-12-07T13:13:04;99874.41;;;22.81;18.18
62524;BME280;53689;56.878;60.672;2022-12-07T13:15:53;99862.25;;;22.77;17.37
62524;BME280;53689;56.878;60.672;2022-12-07T13:18:27;99867.50;;;22.78;17.39
62524;BME280;53689;56.878;60.672;2022-12-07T13:21:41;99860.75;;;22.82;18.54
62524;BME280;53689;56.878;60.672;2022-12-07T13:24:12;99865.63;;;22.79;18.24
62524;BME280;53689;56.878;60.672;2022-12-07T13:26:43;99875.41;;;22.80;17.35